sensor_id;sensor_type;location;lat;lon;timestamp;pressure;altitude;pressure_sealevel;temperature
67501;BMP180;54349;52.528;19.760;2022-12-18T00:00:08;102011.80;;;22.50
67501;BMP180;54349;52.528;19.760;2022-12-18T00:03:04;102020.60;;;22.50
67501;BMP180;54349;52.528;19.760;2022-12-18T00:05:32;102025.40;;;22.50
67501;BMP180;54349;52.528;19.760;2022-12-18T00:08:00;102024.40;;;22.50
67501;BMP180;54349;52.528;19.760;2022-12-18T00:10:29;102023.40;;;22.50
67501;BMP180;54349;52.528;19.760;2022-12-18T00:12:57;102029.40;;;22.50
67501;BMP180;54349;52.528;19.760;2022-12-18T00:15:25;102032.20;;;22.50
67501;BMP180;54349;52.528;19.760;2022-12-18T00:17:53;102036.20;;;22.50
67501;BMP180;54349;52.528;19.760;2022-12-18T00:20:21;102037.40;;;22.50
67501;BMP180;54349;52.528;19.760;2022-12-18T00:22:54;102040.40;;;22.50
67501;BMP180;54349;52.528;19.760;2022-12-18T00:25:23;102043.00;;;22.50
67501;BMP180;54349;52.528;19.760;2022-12-18T00:27:51;102052.00;;;22.50
67501;BMP180;54349;52.528;19.760;2022-12-18T00:30:19;102057.00;;;22.50
67501;BMP180;54349;52.528;19.760;2022-12-18T00:32:47;102060.60;;;22.50
67501;BMP180;54349;52.528;19.760;2022-12-18T00:35:15;102065.40;;;22.48
67501;BMP180;54349;52.528;19.760;2022-12-18T00:37:44;102067.20;;;22.40
67501;BMP180;54349;52.528;19.760;2022-12-18T00:40:13;102061.60;;;22.40
67501;BMP180;54349;52.528;19.760;2022-12-18T00:42:40;102066.60;;;22.40
67501;BMP180;54349;52.528;19.760;2022-12-18T00:45:26;102074.20;;;22.40
67501;BMP180;54349;52.528;19.760;2022-12-18T00:47:55;102072.80;;;22.30
67501;BMP180;54349;52.528;19.760;2022-12-18T00:50:25;102076.40;;;22.30
67501;BMP180;54349;52.528;19.760;2022-12-18T00:52:53;102080.40;;;22.30
67501;BMP180;54349;52.528;19.760;2022-12-18T00:55:22;102089.20;;;22.30
67501;BMP180;54349;52.528;19.760;2022-12-18T00:57:51;102088.20;;;22.28
67501;BMP180;54349;52.528;19.760;2022-12-18T01:00:21;102095.00;;;22.20
67501;BMP180;54349;52.528;19.760;2022-12-18T01:02:49;102094.40;;;22.20
67501;BMP180;54349;52.528;19.760;2022-12-18T01:05:18;102099.60;;;22.20
67501;BMP180;54349;52.528;19.760;2022-12-18T01:07:46;102104.20;;;22.20
67501;BMP180;54349;52.528;19.760;2022-12-18T01:10:14;102101.40;;;22.20
67501;BMP180;54349;52.528;19.760;2022-12-18T01:12:43;102103.60;;;22.20
67501;BMP180;54349;52.528;19.760;2022-12-18T01:15:13;102100.60;;;22.18
67501;BMP180;54349;52.528;19.760;2022-12-18T01:17:43;102099.60;;;22.16
67501;BMP180;54349;52.528;19.760;2022-12-18T01:20:12;102102.20;;;22.14
67501;BMP180;54349;52.528;19.760;2022-12-18T01:22:40;102104.80;;;22.10
67501;BMP180;54349;52.528;19.760;2022-12-18T01:25:09;102105.40;;;22.10
67501;BMP180;54349;52.528;19.760;2022-12-18T01:27:37;102107.00;;;22.10
67501;BMP180;54349;52.528;19.760;2022-12-18T01:30:06;102111.20;;;22.10
67501;BMP180;54349;52.528;19.760;2022-12-18T01:32:34;102113.60;;;22.10
67501;BMP180;54349;52.528;19.760;2022-12-18T01:35:03;102114.80;;;22.08
67501;BMP180;54349;52.528;19.760;2022-12-18T01:37:31;102115.60;;;22.02
67501;BMP180;54349;52.528;19.760;2022-12-18T01:39:59;102120.20;;;22.00
67501;BMP180;54349;52.528;19.760;2022-12-18T01:42:27;102124.40;;;22.00
67501;BMP180;54349;52.528;19.760;2022-12-18T01:47:48;102141.60;;;22.00
67501;BMP180;54349;52.528;19.760;2022-12-18T01:50:24;102143.80;;;22.00
67501;BMP180;54349;52.528;19.760;2022-12-18T01:53:13;102148.40;;;22.00
67501;BMP180;54349;52.528;19.760;2022-12-18T01:55:58;102151.40;;;22.00
67501;BMP180;54349;52.528;19.760;2022-12-18T01:58:38;102156.80;;;21.96
67501;BMP180;54349;52.528;19.760;2022-12-18T02:01:09;102160.80;;;21.90
67501;BMP180;54349;52.528;19.760;2022-12-18T02:03:37;102158.80;;;21.90
67501;BMP180;54349;52.528;19.760;2022-12-18T02:06:37;102160.40;;;21.90
67501;BMP180;54349;52.528;19.760;2022-12-18T02:09:12;102156.40;;;21.90
67501;BMP180;54349;52.528;19.760;2022-12-18T02:12:05;102163.60;;;21.90
67501;BMP180;54349;52.528;19.760;2022-12-18T02:15:03;102165.40;;;21.90
67501;BMP180;54349;52.528;19.760;2022-12-18T02:17:44;102172.40;;;21.90
67501;BMP180;54349;52.528;19.760;2022-12-18T02:21:08;102177.20;;;21.90
67501;BMP180;54349;52.528;19.760;2022-12-18T02:26:36;102178.40;;;21.84
67501;BMP180;54349;52.528;19.760;2022-12-18T02:29:12;102181.00;;;21.80
67501;BMP180;54349;52.528;19.760;2022-12-18T02:31:49;102187.40;;;21.80
67501;BMP180;54349;52.528;19.760;2022-12-18T02:34:24;102188.40;;;21.80
67501;BMP180;54349;52.528;19.760;2022-12-18T02:36:57;102189.80;;;21.80
67501;BMP180;54349;52.528;19.760;2022-12-18T02:39:29;102191.40;;;21.80
67501;BMP180;54349;52.528;19.760;2022-12-18T02:42:03;102195.00;;;21.80
67501;BMP180;54349;52.528;19.760;2022-12-18T02:44:44;102199.60;;;21.80
67501;BMP180;54349;52.528;19.760;2022-12-18T02:47:19;102205.80;;;21.80
67501;BMP180;54349;52.528;19.760;2022-12-18T02:50:18;102210.20;;;21.80
67501;BMP180;54349;52.528;19.760;2022-12-18T02:53:21;102228.80;;;21.80
67501;BMP180;54349;52.528;19.760;2022-12-18T02:56:15;102233.40;;;21.80
67501;BMP180;54349;52.528;19.760;2022-12-18T02:59:00;102238.40;;;21.80
67501;BMP180;54349;52.528;19.760;2022-12-18T03:04:49;102245.00;;;21.80
67501;BMP180;54349;52.528;19.760;2022-12-18T03:07:42;102251.60;;;21.80
67501;BMP180;54349;52.528;19.760;2022-12-18T03:10:20;102245.20;;;21.70
67501;BMP180;54349;52.528;19.760;2022-12-18T03:13:03;102244.00;;;21.78
67501;BMP180;54349;52.528;19.760;2022-12-18T03:15:55;102246.00;;;21.80
67501;BMP180;54349;52.528;19.760;2022-12-18T03:18:37;102242.20;;;21.76
67501;BMP180;54349;52.528;19.760;2022-12-18T03:21:10;102251.60;;;21.78
67501;BMP180;54349;52.528;19.760;2022-12-18T03:23:46;102251.20;;;21.70
67501;BMP180;54349;52.528;19.760;2022-12-18T03:26:21;102246.00;;;21.70
67501;BMP180;54349;52.528;19.760;2022-12-18T03:28:58;102248.40;;;21.70
67501;BMP180;54349;52.528;19.760;2022-12-18T03:31:31;102240.60;;;21.70
67501;BMP180;54349;52.528;19.760;2022-12-18T03:34:16;102245.00;;;21.70
67501;BMP180;54349;52.528;19.760;2022-12-18T03:36:47;102245.20;;;21.70
67501;BMP180;54349;52.528;19.760;2022-12-18T03:39:16;102252.20;;;21.70
67501;BMP180;54349;52.528;19.760;2022-12-18T03:42:10;102256.60;;;21.70
67501;BMP180;54349;52.528;19.760;2022-12-18T03:44:58;102259.00;;;21.70
67501;BMP180;54349;52.528;19.760;2022-12-18T03:47:45;102260.00;;;21.70
67501;BMP180;54349;52.528;19.760;2022-12-18T03:50:49;102257.80;;;21.70
67501;BMP180;54349;52.528;19.760;2022-12-18T03:53:38;102262.80;;;21.70
67501;BMP180;54349;52.528;19.760;2022-12-18T03:56:10;102271.60;;;21.70
67501;BMP180;54349;52.528;19.760;2022-12-18T03:58:40;102278.60;;;21.70
67501;BMP180;54349;52.528;19.760;2022-12-18T04:01:21;102290.40;;;21.70
67501;BMP180;54349;52.528;19.760;2022-12-18T04:03:52;102284.80;;;21.70
67501;BMP180;54349;52.528;19.760;2022-12-18T04:06:21;102289.20;;;21.64
67501;BMP180;54349;52.528;19.760;2022-12-18T04:08:50;102294.20;;;21.60
67501;BMP180;54349;52.528;19.760;2022-12-18T04:11:20;102294.80;;;21.60
67501;BMP180;54349;52.528;19.760;2022-12-18T04:13:48;102299.20;;;21.60
67501;BMP180;54349;52.528;19.760;2022-12-18T04:16:22;102303.20;;;21.50
67501;BMP180;54349;52.528;19.760;2022-12-18T04:18:53;102312.60;;;21.50
67501;BMP180;54349;52.528;19.760;2022-12-18T04:21:22;102311.00;;;21.50
67501;BMP180;54349;52.528;19.760;2022-12-18T04:23:50;102314.60;;;21.40
67501;BMP180;54349;52.528;19.760;2022-12-18T04:26:20;102314.00;;;21.40
67501;BMP180;54349;52.528;19.760;2022-12-18T04:29:07;102327.00;;;21.36
67501;BMP180;54349;52.528;19.760;2022-12-18T04:31:36;102329.20;;;21.30
67501;BMP180;54349;52.528;19.760;2022-12-18T04:34:06;102333.60;;;21.30
67501;BMP180;54349;52.528;19.760;2022-12-18T04:36:38;102337.60;;;21.34
67501;BMP180;54349;52.528;19.760;2022-12-18T04:39:06;102337.40;;;21.46
67501;BMP180;54349;52.528;19.760;2022-12-18T04:41:34;102338.40;;;21.60
67501;BMP180;54349;52.528;19.760;2022-12-18T04:44:04;102345.60;;;21.70
67501;BMP180;54349;52.528;19.760;2022-12-18T04:46:32;102342.40;;;21.80
67501;BMP180;54349;52.528;19.760;2022-12-18T04:49:00;102348.20;;;21.90
67501;BMP180;54349;52.528;19.760;2022-12-18T04:51:28;102350.00;;;22.00
67501;BMP180;54349;52.528;19.760;2022-12-18T04:53:56;102349.00;;;22.10
67501;BMP180;54349;52.528;19.760;2022-12-18T04:56:24;102352.40;;;22.20
67501;BMP180;54349;52.528;19.760;2022-12-18T04:58:52;102358.40;;;22.30
67501;BMP180;54349;52.528;19.760;2022-12-18T05:01:21;102362.60;;;22.30
67501;BMP180;54349;52.528;19.760;2022-12-18T05:03:51;102363.00;;;22.40
67501;BMP180;54349;52.528;19.760;2022-12-18T05:06:19;102364.40;;;22.40
67501;BMP180;54349;52.528;19.760;2022-12-18T05:08:47;102364.00;;;22.50
67501;BMP180;54349;52.528;19.760;2022-12-18T05:11:16;102368.80;;;22.54
67501;BMP180;54349;52.528;19.760;2022-12-18T05:13:45;102372.80;;;22.60
67501;BMP180;54349;52.528;19.760;2022-12-18T05:16:13;102373.00;;;22.60
67501;BMP180;54349;52.528;19.760;2022-12-18T05:18:42;102373.20;;;22.66
67501;BMP180;54349;52.528;19.760;2022-12-18T05:21:10;102373.60;;;22.70
67501;BMP180;54349;52.528;19.760;2022-12-18T05:23:38;102381.80;;;22.70
67501;BMP180;54349;52.528;19.760;2022-12-18T05:26:16;102383.60;;;22.70
67501;BMP180;54349;52.528;19.760;2022-12-18T05:28:45;102392.60;;;22.80
67501;BMP180;54349;52.528;19.760;2022-12-18T05:31:14;102393.80;;;22.80
67501;BMP180;54349;52.528;19.760;2022-12-18T05:33:43;102393.80;;;22.80
67501;BMP180;54349;52.528;19.760;2022-12-18T05:36:11;102404.20;;;22.84
67501;BMP180;54349;52.528;19.760;2022-12-18T05:38:40;102397.80;;;22.90
67501;BMP180;54349;52.528;19.760;2022-12-18T05:41:09;102405.20;;;22.86
67501;BMP180;54349;52.528;19.760;2022-12-18T05:43:39;102404.60;;;22.90
67501;BMP180;54349;52.528;19.760;2022-12-18T05:46:14;102406.00;;;22.90
67501;BMP180;54349;52.528;19.760;2022-12-18T05:48:44;102408.80;;;22.90
67501;BMP180;54349;52.528;19.760;2022-12-18T05:51:15;102405.80;;;22.80
67501;BMP180;54349;52.528;19.760;2022-12-18T05:53:45;102405.80;;;22.80
67501;BMP180;54349;52.528;19.760;2022-12-18T05:56:18;102407.80;;;22.82
67501;BMP180;54349;52.528;19.760;2022-12-18T05:58:51;102411.80;;;22.82
67501;BMP180;54349;52.528;19.760;2022-12-18T06:01:24;102417.00;;;22.80
67501;BMP180;54349;52.528;19.760;2022-12-18T06:03:53;102415.60;;;22.80
67501;BMP180;54349;52.528;19.760;2022-12-18T06:06:26;102419.00;;;22.80
67501;BMP180;54349;52.528;19.760;2022-12-18T06:08:55;102423.20;;;22.80
67501;BMP180;54349;52.528;19.760;2022-12-18T06:11:26;102427.00;;;22.70
67501;BMP180;54349;52.528;19.760;2022-12-18T06:13:56;102429.60;;;22.70
67501;BMP180;54349;52.528;19.760;2022-12-18T06:16:28;102433.80;;;22.60
67501;BMP180;54349;52.528;19.760;2022-12-18T06:18:59;102437.60;;;22.60
67501;BMP180;54349;52.528;19.760;2022-12-18T06:21:30;102444.20;;;22.60
67501;BMP180;54349;52.528;19.760;2022-12-18T06:24:00;102448.60;;;22.60
67501;BMP180;54349;52.528;19.760;2022-12-18T06:26:28;102449.60;;;22.60
67501;BMP180;54349;52.528;19.760;2022-12-18T06:28:56;102451.40;;;22.50
67501;BMP180;54349;52.528;19.760;2022-12-18T06:31:25;102451.40;;;22.50
67501;BMP180;54349;52.528;19.760;2022-12-18T06:33:54;102457.00;;;22.50
67501;BMP180;54349;52.528;19.760;2022-12-18T06:36:22;102466.00;;;22.50
67501;BMP180;54349;52.528;19.760;2022-12-18T06:38:50;102466.00;;;22.40
67501;BMP180;54349;52.528;19.760;2022-12-18T06:41:20;102468.80;;;22.40
67501;BMP180;54349;52.528;19.760;2022-12-18T06:43:49;102472.40;;;22.40
67501;BMP180;54349;52.528;19.760;2022-12-18T06:46:21;102476.60;;;22.40
67501;BMP180;54349;52.528;19.760;2022-12-18T06:48:50;102480.60;;;22.40
67501;BMP180;54349;52.528;19.760;2022-12-18T06:51:23;102492.00;;;22.40
67501;BMP180;54349;52.528;19.760;2022-12-18T06:53:51;102492.60;;;22.40
67501;BMP180;54349;52.528;19.760;2022-12-18T06:56:20;102496.20;;;22.40
67501;BMP180;54349;52.528;19.760;2022-12-18T06:58:51;102502.40;;;22.40
67501;BMP180;54349;52.528;19.760;2022-12-18T07:01:21;102509.00;;;22.40
67501;BMP180;54349;52.528;19.760;2022-12-18T07:03:55;102515.00;;;22.40
67501;BMP180;54349;52.528;19.760;2022-12-18T07:06:25;102521.80;;;22.40
67501;BMP180;54349;52.528;19.760;2022-12-18T07:08:56;102519.20;;;22.40
67501;BMP180;54349;52.528;19.760;2022-12-18T07:11:24;102521.40;;;22.40
67501;BMP180;54349;52.528;19.760;2022-12-18T07:13:53;102531.00;;;22.40
67501;BMP180;54349;52.528;19.760;2022-12-18T07:16:22;102533.00;;;22.40
67501;BMP180;54349;52.528;19.760;2022-12-18T07:18:54;102535.00;;;22.40
67501;BMP180;54349;52.528;19.760;2022-12-18T07:21:24;102542.00;;;22.40
67501;BMP180;54349;52.528;19.760;2022-12-18T07:23:53;102545.20;;;22.40
67501;BMP180;54349;52.528;19.760;2022-12-18T07:26:22;102555.00;;;22.30
67501;BMP180;54349;52.528;19.760;2022-12-18T07:28:55;102558.20;;;22.30
67501;BMP180;54349;52.528;19.760;2022-12-18T07:31:25;102558.20;;;22.32
67501;BMP180;54349;52.528;19.760;2022-12-18T07:33:54;102563.60;;;22.30
67501;BMP180;54349;52.528;19.760;2022-12-18T07:36:23;102566.60;;;22.32
67501;BMP180;54349;52.528;19.760;2022-12-18T07:38:51;102568.80;;;22.38
67501;BMP180;54349;52.528;19.760;2022-12-18T07:41:22;102574.00;;;22.34
67501;BMP180;54349;52.528;19.760;2022-12-18T07:43:51;102581.20;;;22.32
67501;BMP180;54349;52.528;19.760;2022-12-18T07:46:20;102584.60;;;22.36
67501;BMP180;54349;52.528;19.760;2022-12-18T07:48:48;102590.40;;;22.30
67501;BMP180;54349;52.528;19.760;2022-12-18T07:51:18;102590.40;;;22.30
67501;BMP180;54349;52.528;19.760;2022-12-18T07:53:47;102591.00;;;22.30
67501;BMP180;54349;52.528;19.760;2022-12-18T07:56:20;102591.00;;;22.30
67501;BMP180;54349;52.528;19.760;2022-12-18T07:58:56;102592.00;;;22.30
67501;BMP180;54349;52.528;19.760;2022-12-18T08:01:25;102592.20;;;22.30
67501;BMP180;54349;52.528;19.760;2022-12-18T08:03:54;102584.60;;;22.30
67501;BMP180;54349;52.528;19.760;2022-12-18T08:06:22;102592.80;;;22.30
67501;BMP180;54349;52.528;19.760;2022-12-18T08:08:56;102598.00;;;22.30
67501;BMP180;54349;52.528;19.760;2022-12-18T08:11:27;102600.40;;;22.40
67501;BMP180;54349;52.528;19.760;2022-12-18T08:13:55;102600.20;;;22.40
67501;BMP180;54349;52.528;19.760;2022-12-18T08:16:24;102598.00;;;22.40
67501;BMP180;54349;52.528;19.760;2022-12-18T08:18:54;102600.00;;;22.42
67501;BMP180;54349;52.528;19.760;2022-12-18T08:21:29;102601.60;;;22.48
67501;BMP180;54349;52.528;19.760;2022-12-18T08:24:01;102607.80;;;22.42
67501;BMP180;54349;52.528;19.760;2022-12-18T08:26:31;102609.40;;;22.40
67501;BMP180;54349;52.528;19.760;2022-12-18T08:29:00;102615.40;;;22.40
67501;BMP180;54349;52.528;19.760;2022-12-18T08:31:30;102612.40;;;22.48
67501;BMP180;54349;52.528;19.760;2022-12-18T08:33:59;102619.20;;;22.48
67501;BMP180;54349;52.528;19.760;2022-12-18T08:36:27;102622.20;;;22.50
67501;BMP180;54349;52.528;19.760;2022-12-18T08:38:56;102623.40;;;22.50
67501;BMP180;54349;52.528;19.760;2022-12-18T08:41:25;102625.60;;;22.50
67501;BMP180;54349;52.528;19.760;2022-12-18T08:43:53;102623.80;;;22.50
67501;BMP180;54349;52.528;19.760;2022-12-18T08:46:43;102624.00;;;22.50
67501;BMP180;54349;52.528;19.760;2022-12-18T08:49:12;102628.20;;;22.50
67501;BMP180;54349;52.528;19.760;2022-12-18T08:51:40;102635.00;;;22.50
67501;BMP180;54349;52.528;19.760;2022-12-18T08:54:11;102636.60;;;22.54
67501;BMP180;54349;52.528;19.760;2022-12-18T08:56:41;102634.00;;;22.54
67501;BMP180;54349;52.528;19.760;2022-12-18T08:59:09;102632.20;;;22.56
67501;BMP180;54349;52.528;19.760;2022-12-18T09:01:46;102634.20;;;22.60
67501;BMP180;54349;52.528;19.760;2022-12-18T09:04:15;102638.80;;;22.60
67501;BMP180;54349;52.528;19.760;2022-12-18T09:06:43;102644.40;;;22.58
67501;BMP180;54349;52.528;19.760;2022-12-18T09:09:11;102648.40;;;22.60
67501;BMP180;54349;52.528;19.760;2022-12-18T09:11:39;102660.20;;;22.60
67501;BMP180;54349;52.528;19.760;2022-12-18T09:14:09;102668.00;;;22.60
67501;BMP180;54349;52.528;19.760;2022-12-18T09:16:38;102668.80;;;22.60
67501;BMP180;54349;52.528;19.760;2022-12-18T09:19:06;102668.40;;;22.60
67501;BMP180;54349;52.528;19.760;2022-12-18T09:21:37;102670.20;;;22.60
67501;BMP180;54349;52.528;19.760;2022-12-18T09:24:13;102677.20;;;22.60
67501;BMP180;54349;52.528;19.760;2022-12-18T09:26:42;102684.20;;;22.60
67501;BMP180;54349;52.528;19.760;2022-12-18T09:29:15;102687.00;;;22.60
67501;BMP180;54349;52.528;19.760;2022-12-18T09:31:46;102683.80;;;22.60
67501;BMP180;54349;52.528;19.760;2022-12-18T09:34:15;102680.80;;;22.60
67501;BMP180;54349;52.528;19.760;2022-12-18T09:36:44;102680.40;;;22.60
67501;BMP180;54349;52.528;19.760;2022-12-18T09:39:14;102671.60;;;22.60
67501;BMP180;54349;52.528;19.760;2022-12-18T09:41:51;102674.00;;;22.60
67501;BMP180;54349;52.528;19.760;2022-12-18T09:44:44;102678.40;;;22.68
67501;BMP180;54349;52.528;19.760;2022-12-18T09:47:24;102684.20;;;22.60
67501;BMP180;54349;52.528;19.760;2022-12-18T09:49:59;102680.20;;;22.60
67501;BMP180;54349;52.528;19.760;2022-12-18T09:52:43;102678.20;;;22.60
67501;BMP180;54349;52.528;19.760;2022-12-18T09:55:46;102675.80;;;22.60
67501;BMP180;54349;52.528;19.760;2022-12-18T09:58:53;102681.40;;;22.60
67501;BMP180;54349;52.528;19.760;2022-12-18T10:01:28;102681.00;;;22.60
67501;BMP180;54349;52.528;19.760;2022-12-18T10:04:10;102678.00;;;22.60
67501;BMP180;54349;52.528;19.760;2022-12-18T10:14:54;102677.20;;;22.60
67501;BMP180;54349;52.528;19.760;2022-12-18T10:17:51;102675.40;;;22.60
67501;BMP180;54349;52.528;19.760;2022-12-18T10:20:45;102677.40;;;22.60
67501;BMP180;54349;52.528;19.760;2022-12-18T10:23:47;102681.80;;;22.60
67501;BMP180;54349;52.528;19.760;2022-12-18T10:26:19;102680.40;;;22.60
67501;BMP180;54349;52.528;19.760;2022-12-18T10:28:50;102686.80;;;22.50
67501;BMP180;54349;52.528;19.760;2022-12-18T10:31:23;102687.40;;;22.50
67501;BMP180;54349;52.528;19.760;2022-12-18T10:33:54;102686.60;;;22.56
67501;BMP180;54349;52.528;19.760;2022-12-18T10:36:24;102683.20;;;22.50
67501;BMP180;54349;52.528;19.760;2022-12-18T10:38:52;102680.80;;;22.50
67501;BMP180;54349;52.528;19.760;2022-12-18T10:44:17;102679.20;;;22.40
67501;BMP180;54349;52.528;19.760;2022-12-18T10:46:49;102680.60;;;22.40
67501;BMP180;54349;52.528;19.760;2022-12-18T10:49:25;102684.40;;;22.40
67501;BMP180;54349;52.528;19.760;2022-12-18T10:52:25;102685.20;;;22.40
67501;BMP180;54349;52.528;19.760;2022-12-18T10:55:03;102687.80;;;22.40
67501;BMP180;54349;52.528;19.760;2022-12-18T10:57:39;102682.60;;;22.50
67501;BMP180;54349;52.528;19.760;2022-12-18T11:00:30;102678.40;;;22.50
67501;BMP180;54349;52.528;19.760;2022-12-18T11:02:58;102677.60;;;22.50
67501;BMP180;54349;52.528;19.760;2022-12-18T11:05:32;102672.80;;;22.50
67501;BMP180;54349;52.528;19.760;2022-12-18T11:08:02;102679.80;;;22.60
67501;BMP180;54349;52.528;19.760;2022-12-18T11:10:36;102682.60;;;22.52
67501;BMP180;54349;52.528;19.760;2022-12-18T11:13:18;102678.80;;;22.60
67501;BMP180;54349;52.528;19.760;2022-12-18T11:15:48;102673.20;;;22.60
67501;BMP180;54349;52.528;19.760;2022-12-18T11:18:29;102675.80;;;22.60
67501;BMP180;54349;52.528;19.760;2022-12-18T11:21:11;102677.20;;;22.60
67501;BMP180;54349;52.528;19.760;2022-12-18T11:23:52;102672.80;;;22.60
67501;BMP180;54349;52.528;19.760;2022-12-18T11:26:33;102670.60;;;22.60
67501;BMP180;54349;52.528;19.760;2022-12-18T11:29:12;102673.00;;;22.58
67501;BMP180;54349;52.528;19.760;2022-12-18T11:31:45;102676.60;;;22.58
67501;BMP180;54349;52.528;19.760;2022-12-18T11:34:27;102678.40;;;22.58
67501;BMP180;54349;52.528;19.760;2022-12-18T11:37:00;102677.40;;;22.60
67501;BMP180;54349;52.528;19.760;2022-12-18T11:39:36;102682.60;;;22.60
67501;BMP180;54349;52.528;19.760;2022-12-18T11:42:22;102681.80;;;22.60
67501;BMP180;54349;52.528;19.760;2022-12-18T11:45:03;102689.60;;;22.58
67501;BMP180;54349;52.528;19.760;2022-12-18T11:47:51;102688.60;;;22.54
67501;BMP180;54349;52.528;19.760;2022-12-18T11:50:31;102691.40;;;22.50
67501;BMP180;54349;52.528;19.760;2022-12-18T11:53:00;102698.60;;;22.50
67501;BMP180;54349;52.528;19.760;2022-12-18T11:58:55;102685.80;;;22.58
67501;BMP180;54349;52.528;19.760;2022-12-18T12:01:53;102685.00;;;22.54
67501;BMP180;54349;52.528;19.760;2022-12-18T12:04:45;102685.60;;;22.52
67501;BMP180;54349;52.528;19.760;2022-12-18T12:07:47;102697.80;;;22.54
67501;BMP180;54349;52.528;19.760;2022-12-18T12:10:43;102702.00;;;22.60
67501;BMP180;54349;52.528;19.760;2022-12-18T12:13:23;102713.40;;;22.58
67501;BMP180;54349;52.528;19.760;2022-12-18T12:18:49;102728.00;;;22.52
67501;BMP180;54349;52.528;19.760;2022-12-18T12:21:28;102734.20;;;22.50
67501;BMP180;54349;52.528;19.760;2022-12-18T12:24:30;102751.00;;;22.50
67501;BMP180;54349;52.528;19.760;2022-12-18T12:27:26;102756.40;;;22.50
67501;BMP180;54349;52.528;19.760;2022-12-18T12:38:23;102764.80;;;22.42
67501;BMP180;54349;52.528;19.760;2022-12-18T12:41:00;102759.00;;;22.40
67501;BMP180;54349;52.528;19.760;2022-12-18T12:43:46;102755.80;;;22.40
67501;BMP180;54349;52.528;19.760;2022-12-18T12:46:20;102761.60;;;22.40
67501;BMP180;54349;52.528;19.760;2022-12-18T12:48:56;102769.00;;;22.40
67501;BMP180;54349;52.528;19.760;2022-12-18T12:51:32;102765.60;;;22.38
67501;BMP180;54349;52.528;19.760;2022-12-18T12:54:08;102764.00;;;22.30
67501;BMP180;54349;52.528;19.760;2022-12-18T12:56:51;102773.60;;;22.30
67501;BMP180;54349;52.528;19.760;2022-12-18T13:02:33;102768.00;;;22.30
67501;BMP180;54349;52.528;19.760;2022-12-18T13:05:24;102763.40;;;22.20
67501;BMP180;54349;52.528;19.760;2022-12-18T13:08:11;102772.20;;;22.20
67501;BMP180;54349;52.528;19.760;2022-12-18T13:10:51;102777.60;;;22.20
67501;BMP180;54349;52.528;19.760;2022-12-18T13:13:52;102766.80;;;22.10
67501;BMP180;54349;52.528;19.760;2022-12-18T13:16:24;102764.80;;;22.10
67501;BMP180;54349;52.528;19.760;2022-12-18T13:18:55;102765.40;;;22.00
67501;BMP180;54349;52.528;19.760;2022-12-18T13:21:30;102765.20;;;22.00
67501;BMP180;54349;52.528;19.760;2022-12-18T13:24:27;102756.20;;;21.92
67501;BMP180;54349;52.528;19.760;2022-12-18T13:26:57;102755.00;;;21.90
67501;BMP180;54349;52.528;19.760;2022-12-18T13:29:44;102754.20;;;21.90
67501;BMP180;54349;52.528;19.760;2022-12-18T13:32:25;102753.40;;;21.90
67501;BMP180;54349;52.528;19.760;2022-12-18T13:37:55;102751.60;;;22.00
67501;BMP180;54349;52.528;19.760;2022-12-18T13:43:22;102750.40;;;22.10
67501;BMP180;54349;52.528;19.760;2022-12-18T13:46:30;102761.40;;;22.20
67501;BMP180;54349;52.528;19.760;2022-12-18T13:51:55;102769.40;;;22.30
67501;BMP180;54349;52.528;19.760;2022-12-18T13:54:33;102779.80;;;22.40
67501;BMP180;54349;52.528;19.760;2022-12-18T13:57:05;102796.00;;;22.50
67501;BMP180;54349;52.528;19.760;2022-12-18T13:59:37;102802.80;;;22.50
67501;BMP180;54349;52.528;19.760;2022-12-18T14:02:15;102806.20;;;22.60
67501;BMP180;54349;52.528;19.760;2022-12-18T14:04:46;102801.60;;;22.60
67501;BMP180;54349;52.528;19.760;2022-12-18T14:07:19;102801.40;;;22.60
67501;BMP180;54349;52.528;19.760;2022-12-18T14:09:53;102808.00;;;22.70
67501;BMP180;54349;52.528;19.760;2022-12-18T14:12:48;102816.40;;;22.70
67501;BMP180;54349;52.528;19.760;2022-12-18T14:15:38;102819.60;;;22.70
67501;BMP180;54349;52.528;19.760;2022-12-18T14:21:03;102819.00;;;22.70
67501;BMP180;54349;52.528;19.760;2022-12-18T14:26:29;102832.40;;;22.62
67501;BMP180;54349;52.528;19.760;2022-12-18T14:29:17;102836.80;;;22.60
67501;BMP180;54349;52.528;19.760;2022-12-18T14:32:09;102844.80;;;22.60
67501;BMP180;54349;52.528;19.760;2022-12-18T14:34:54;102849.40;;;22.60
67501;BMP180;54349;52.528;19.760;2022-12-18T14:37:25;102848.00;;;22.50
67501;BMP180;54349;52.528;19.760;2022-12-18T14:40:05;102846.00;;;22.50
67501;BMP180;54349;52.528;19.760;2022-12-18T14:42:38;102848.40;;;22.50
67501;BMP180;54349;52.528;19.760;2022-12-18T14:45:39;102851.40;;;22.50
67501;BMP180;54349;52.528;19.760;2022-12-18T14:48:21;102847.60;;;22.50
67501;BMP180;54349;52.528;19.760;2022-12-18T14:51:01;102843.60;;;22.50
67501;BMP180;54349;52.528;19.760;2022-12-18T14:53:40;102846.80;;;22.40
67501;BMP180;54349;52.528;19.760;2022-12-18T14:56:21;102846.60;;;22.40
67501;BMP180;54349;52.528;19.760;2022-12-18T14:59:04;102849.60;;;22.40
67501;BMP180;54349;52.528;19.760;2022-12-18T15:02:09;102845.60;;;22.40
67501;BMP180;54349;52.528;19.760;2022-12-18T15:04:36;102833.60;;;22.40
67501;BMP180;54349;52.528;19.760;2022-12-18T15:07:23;102832.60;;;22.40
67501;BMP180;54349;52.528;19.760;2022-12-18T15:10:20;102834.20;;;22.36
67501;BMP180;54349;52.528;19.760;2022-12-18T15:13:07;102838.00;;;22.30
67501;BMP180;54349;52.528;19.760;2022-12-18T15:18:18;102840.60;;;22.30
67501;BMP180;54349;52.528;19.760;2022-12-18T15:20:53;102844.60;;;22.30
67501;BMP180;54349;52.528;19.760;2022-12-18T15:26:20;102850.40;;;22.26